This is the latest recevied weather packets stored in our database for station/object HA3KHB-6. If no packets are shown the sender has not sent any weather packets the latest 10 day(s).
| Time | Temp. | Humidity | Pressure | Rain* | Wind** | Luminosity | Snow |
|---|---|---|---|---|---|---|---|
| 1777910723 | 27.22° C | 41% | 1543.2 hPa | - | - | - | - |
| 1777910123 | 29.44° C | 39% | 1548.4 hPa | - | - | - | - |
| 1777909523 | 30° C | 39% | 1549.4 hPa | - | - | - | - |
| 1777908923 | 29.44° C | 37% | 1548.8 hPa | - | - | - | - |
| 1777908323 | 30° C | 39% | 1549.6 hPa | - | - | - | - |
| 1777907722 | 30° C | 38% | 1549.3 hPa | - | - | - | - |
| 1777907123 | 30.56° C | 37% | 1551.1 hPa | - | - | - | - |
| 1777906523 | 30.56° C | 40% | 1550.6 hPa | - | - | - | - |
| 1777905922 | 30° C | 37% | 1550.1 hPa | - | - | - | - |
| 1777905322 | 30° C | 37% | 1550.3 hPa | - | - | - | - |
| 1777904722 | 30° C | 37% | 1549.5 hPa | - | - | - | - |
| 1777904122 | 30.56° C | 38% | 1551.3 hPa | - | - | - | - |
| 1777903522 | 30° C | 35% | 1549.7 hPa | - | - | - | - |
| 1777902922 | 31.67° C | 42% | 1553.7 hPa | - | - | - | - |
| 1777902322 | 31.11° C | 39% | 1551.9 hPa | - | - | - | - |
| 1777901722 | 31.11° C | 39% | 1552.1 hPa | - | - | - | - |
| 1777901121 | 30° C | 43% | 1549.5 hPa | - | - | - | - |
| 1777900521 | 28.89° C | 45% | 1546.2 hPa | - | - | - | - |
| 1777899921 | 28.89° C | 40% | 1546.4 hPa | - | - | - | - |
| 1777899320 | 30.56° C | 38% | 1551.7 hPa | - | - | - | - |
| 1777898720 | 31.11° C | 36% | 1552.1 hPa | - | - | - | - |
| 1777898120 | 32.78° C | 31% | 1556.4 hPa | - | - | - | - |
| 1777897520 | 33.89° C | 36% | 1559.2 hPa | - | - | - | - |
| 1777896920 | 33.33° C | 33% | 1558.2 hPa | - | - | - | - |
| 1777896319 | 33.33° C | 34% | 1558 hPa | - | - | - | - |
* Rain since midnight (hover to see other rain measurements)
** Current wind speed in m/s (hover to see current wind gust speed)